Time;durP1;ratioP1;P1;durP2;ratioP2;P2;SDS_P1;SDS_P2;PMS_P1;PMS_P2;Temp;Humidity;BMP_temperature;BMP_pressure;BME280_temperature;BME280_humidity;BME280_pressure;Samples;Min_cycle;Max_cycle;Signal;HPM_P1;HPM_P2
2023/01/21 00:00:41;;;;;;;17.00;15.20;;;;;;;;;;5051843;28;20495;-75
2023/01/21 00:03:08;;;;;;;17.67;15.77;;;;;;;;;;5050843;28;20433;-75
2023/01/21 00:05:35;;;;;;;18.30;15.33;;;;;;;;;;5050889;28;20445;-75
2023/01/21 00:08:02;;;;;;;18.40;15.27;;;;;;;;;;5050831;28;20433;-74
2023/01/21 00:10:30;;;;;;;17.13;15.40;;;;;;;;;;5050880;28;20906;-74
2023/01/21 00:12:57;;;;;;;18.00;16.00;;;;;;;;;;5050342;28;20492;-74
2023/01/21 00:15:24;;;;;;;17.33;15.67;;;;;;;;;;5050992;28;20930;-74
2023/01/21 00:17:54;;;;;;;18.53;15.57;;;;;;;;;;5050483;28;20484;-76
2023/01/21 00:20:21;;;;;;;17.93;16.20;;;;;;;;;;5050685;28;20466;-75
2023/01/21 00:22:48;;;;;;;18.20;16.20;;;;;;;;;;5050082;28;20495;-75
2023/01/21 00:25:15;;;;;;;21.70;16.50;;;;;;;;;;5050287;28;20850;-74
2023/01/21 00:27:42;;;;;;;18.80;16.80;;;;;;;;;;5050511;28;20785;-73
2023/01/21 00:30:10;;;;;;;16.93;15.10;;;;;;;;;;5050616;28;20465;-75
2023/01/21 00:32:37;;;;;;;18.07;16.23;;;;;;;;;;5050290;28;20538;-75
2023/01/21 00:35:06;;;;;;;18.27;15.77;;;;;;;;;;5051095;28;20444;-74
2023/01/21 00:37:33;;;;;;;19.60;16.27;;;;;;;;;;5050527;28;21005;-75
2023/01/21 00:40:00;;;;;;;17.70;15.83;;;;;;;;;;5050577;28;20470;-74
2023/01/21 00:42:27;;;;;;;18.10;16.30;;;;;;;;;;5050791;28;20449;-75
2023/01/21 00:44:56;;;;;;;17.33;15.43;;;;;;;;;;5050855;28;20508;-74
2023/01/21 00:47:23;;;;;;;16.83;15.13;;;;;;;;;;5051128;28;20449;-75
2023/01/21 00:49:50;;;;;;;18.90;16.77;;;;;;;;;;5050788;28;20461;-75
2023/01/21 00:52:18;;;;;;;18.13;16.23;;;;;;;;;;5050707;28;20454;-75
2023/01/21 00:54:45;;;;;;;17.63;15.80;;;;;;;;;;5049714;28;20449;-74
2023/01/21 00:57:13;;;;;;;16.43;14.73;;;;;;;;;;5049747;28;20484;-74
2023/01/21 00:59:40;;;;;;;20.07;15.93;;;;;;;;;;5049831;28;20501;-75
2023/01/21 01:02:07;;;;;;;17.63;15.13;;;;;;;;;;5049926;28;20477;-75
2023/01/21 01:04:34;;;;;;;17.20;14.80;;;;;;;;;;5049227;28;20456;-73
2023/01/21 01:07:01;;;;;;;16.03;14.10;;;;;;;;;;5049415;28;20845;-74
2023/01/21 01:09:29;;;;;;;16.00;13.97;;;;;;;;;;5049727;28;20474;-75
2023/01/21 01:11:56;;;;;;;15.20;13.60;;;;;;;;;;5049867;28;20452;-75
2023/01/21 01:14:23;;;;;;;16.00;14.40;;;;;;;;;;5049606;28;20448;-74
2023/01/21 01:16:51;;;;;;;19.77;14.63;;;;;;;;;;5068122;28;20444;-75
2023/01/21 01:19:18;;;;;;;16.00;14.40;;;;;;;;;;5069645;28;20469;-75
2023/01/21 01:21:45;;;;;;;15.67;14.07;;;;;;;;;;5069605;28;21094;-75
2023/01/21 01:24:12;;;;;;;14.97;13.47;;;;;;;;;;5069495;28;20445;-74
2023/01/21 01:26:41;;;;;;;16.47;13.63;;;;;;;;;;5069933;28;20618;-74
2023/01/21 01:29:08;;;;;;;15.33;13.83;;;;;;;;;;5069689;28;20471;-74
2023/01/21 01:31:35;;;;;;;16.33;12.23;;;;;;;;;;5069946;28;20440;-75
2023/01/21 01:34:02;;;;;;;16.63;14.63;;;;;;;;;;5069398;28;20448;-74
2023/01/21 01:36:29;;;;;;;14.80;13.40;;;;;;;;;;5069729;28;20832;-75
2023/01/21 01:38:57;;;;;;;15.00;13.50;;;;;;;;;;5069713;28;20492;-74
2023/01/21 01:41:26;;;;;;;15.17;12.60;;;;;;;;;;5069702;28;20552;-75
2023/01/21 01:43:56;;;;;;;14.07;12.67;;;;;;;;;;5069332;28;20506;-75
2023/01/21 01:46:24;;;;;;;14.67;13.13;;;;;;;;;;5069628;28;20539;-75
2023/01/21 01:48:53;;;;;;;14.83;13.30;;;;;;;;;;5069385;28;20471;-74
2023/01/21 01:51:23;;;;;;;14.43;12.93;;;;;;;;;;5069540;28;20450;-75
2023/01/21 01:53:52;;;;;;;14.50;13.20;;;;;;;;;;5069466;28;20444;-74
2023/01/21 01:56:20;;;;;;;14.23;12.73;;;;;;;;;;5069872;28;20536;-75
2023/01/21 01:58:47;;;;;;;15.10;12.30;;;;;;;;;;5069208;28;20488;-74
2023/01/21 02:01:16;;;;;;;15.50;13.83;;;;;;;;;;5069322;28;20524;-74
2023/01/21 02:03:44;;;;;;;13.97;12.60;;;;;;;;;;5069179;28;20597;-74
2023/01/21 02:06:12;;;;;;;13.83;12.27;;;;;;;;;;5070759;28;20467;-75
2023/01/21 02:08:39;;;;;;;14.00;12.43;;;;;;;;;;5072857;28;20840;-75
2023/01/21 02:11:13;;;;;;;12.97;11.60;;;;;;;;;;5073155;28;20519;-74
2023/01/21 02:13:41;;;;;;;13.93;12.10;;;;;;;;;;5072958;28;20984;-74
2023/01/21 02:16:19;;;;;;;13.50;12.10;;;;;;;;;;5060423;28;20441;-74
2023/01/21 02:18:49;;;;;;;13.70;12.33;;;;;;;;;;5053123;28;20508;-75
2023/01/21 02:21:30;;;;;;;13.90;12.40;;;;;;;;;;5053169;28;20453;-75
2023/01/21 02:24:06;;;;;;;13.40;12.20;;;;;;;;;;5057300;28;20433;-74
2023/01/21 02:26:46;;;;;;;15.43;12.97;;;;;;;;;;5085434;28;20463;-72
2023/01/21 02:29:30;;;;;;;19.73;13.40;;;;;;;;;;5078543;28;20459;-74
2023/01/21 02:32:08;;;;;;;14.97;13.37;;;;;;;;;;5085780;28;20449;-74
2023/01/21 02:34:40;;;;;;;12.53;11.43;;;;;;;;;;5076989;28;20848;-75
2023/01/21 02:37:10;;;;;;;14.57;11.73;;;;;;;;;;5072953;28;20835;-74
2023/01/21 02:39:45;;;;;;;13.40;12.07;;;;;;;;;;5072744;28;20507;-75
2023/01/21 02:42:14;;;;;;;16.13;13.53;;;;;;;;;;5072644;28;20513;-75
2023/01/21 02:44:41;;;;;;;15.10;13.60;;;;;;;;;;5074356;28;20455;-74
2023/01/21 02:47:15;;;;;;;16.50;13.57;;;;;;;;;;5073056;28;20965;-75
2023/01/21 02:49:46;;;;;;;18.20;13.90;;;;;;;;;;5074459;28;20503;-74
2023/01/21 02:52:18;;;;;;;14.80;12.83;;;;;;;;;;5074421;28;20508;-74
2023/01/21 02:54:49;;;;;;;16.90;14.10;;;;;;;;;;5072427;28;20475;-74
2023/01/21 02:57:20;;;;;;;15.73;14.00;;;;;;;;;;5072358;28;20515;-75
2023/01/21 02:59:50;;;;;;;18.60;16.10;;;;;;;;;;5072113;28;20518;-74
2023/01/21 03:02:23;;;;;;;16.27;14.60;;;;;;;;;;5072171;28;20560;-74
2023/01/21 03:04:58;;;;;;;14.97;13.57;;;;;;;;;;5071439;28;20449;-74
2023/01/21 03:07:28;;;;;;;18.70;15.07;;;;;;;;;;5070434;28;20453;-75
2023/01/21 03:09:58;;;;;;;18.83;16.00;;;;;;;;;;5071959;28;20464;-74
2023/01/21 03:12:30;;;;;;;15.93;14.37;;;;;;;;;;5068530;28;20445;-75
2023/01/21 03:17:48;;;;;;;17.00;15.30;;;;;;;;;;5070166;28;20476;-74
2023/01/21 03:20:20;;;;;;;17.70;15.83;;;;;;;;;;5068994;28;20461;-75
2023/01/21 03:22:48;;;;;;;16.23;14.63;;;;;;;;;;5057963;28;20533;-75
2023/01/21 03:25:17;;;;;;;18.17;14.80;;;;;;;;;;5062655;28;20452;-74
2023/01/21 03:27:45;;;;;;;17.10;15.30;;;;;;;;;;5061137;28;21135;-75
2023/01/21 03:30:13;;;;;;;20.10;14.93;;;;;;;;;;5058225;28;20960;-74
2023/01/21 03:32:41;;;;;;;15.57;13.83;;;;;;;;;;5062611;28;20520;-74
2023/01/21 03:35:09;;;;;;;16.47;14.60;;;;;;;;;;5066327;28;20445;-75
2023/01/21 03:37:40;;;;;;;23.07;15.70;;;;;;;;;;5062371;28;20453;-74
2023/01/21 03:40:13;;;;;;;17.67;15.63;;;;;;;;;;5060269;28;20564;-75
2023/01/21 03:42:41;;;;;;;16.37;14.63;;;;;;;;;;5062085;28;20456;-75
2023/01/21 03:45:09;;;;;;;19.03;15.70;;;;;;;;;;5057014;28;20449;-75
2023/01/21 03:47:37;;;;;;;18.70;15.80;;;;;;;;;;5071532;28;20436;-75
2023/01/21 03:50:05;;;;;;;18.37;16.40;;;;;;;;;;5071536;28;20890;-75
2023/01/21 03:52:32;;;;;;;19.17;17.17;;;;;;;;;;5071025;28;20440;-76
2023/01/21 03:55:01;;;;;;;22.20;16.23;;;;;;;;;;5071747;28;20444;-75
2023/01/21 03:57:28;;;;;;;20.13;15.63;;;;;;;;;;5071364;28;20564;-75
2023/01/21 03:59:55;;;;;;;19.20;17.20;;;;;;;;;;5070979;28;20464;-75
2023/01/21 04:02:22;;;;;;;19.90;16.73;;;;;;;;;;5071163;28;20523;-76
2023/01/21 04:04:51;;;;;;;20.63;16.10;;;;;;;;;;5071040;28;20437;-75
2023/01/21 04:07:19;;;;;;;19.43;17.33;;;;;;;;;;5071003;28;21013;-74
2023/01/21 04:09:48;;;;;;;18.63;16.73;;;;;;;;;;5071028;28;20460;-75
2023/01/21 04:12:16;;;;;;;19.13;16.70;;;;;;;;;;5071393;28;20444;-75
2023/01/21 04:14:44;;;;;;;20.83;16.00;;;;;;;;;;5071197;28;20448;-74
2023/01/21 04:17:11;;;;;;;23.93;17.53;;;;;;;;;;5071577;28;20521;-75
2023/01/21 04:19:38;;;;;;;20.07;15.93;;;;;;;;;;5071785;28;20484;-74
2023/01/21 04:22:05;;;;;;;25.43;17.53;;;;;;;;;;5071773;28;20449;-75
2023/01/21 04:24:32;;;;;;;21.33;16.47;;;;;;;;;;5072170;28;20436;-74
2023/01/21 04:26:59;;;;;;;18.07;16.17;;;;;;;;;;5072444;28;20456;-75
2023/01/21 04:29:27;;;;;;;21.90;16.63;;;;;;;;;;5069894;28;20995;-75
2023/01/21 04:31:54;;;;;;;22.27;17.13;;;;;;;;;;5077392;28;20433;-73
2023/01/21 04:34:21;;;;;;;19.20;16.70;;;;;;;;;;5082150;28;20499;-75
2023/01/21 04:36:48;;;;;;;20.27;17.23;;;;;;;;;;5083762;28;20449;-73
2023/01/21 04:39:15;;;;;;;18.47;15.60;;;;;;;;;;5078691;28;20485;-73
2023/01/21 04:41:42;;;;;;;18.47;16.50;;;;;;;;;;5083616;28;20922;-74
2023/01/21 04:44:09;;;;;;;20.30;17.17;;;;;;;;;;5083741;28;20520;-74
2023/01/21 04:46:38;;;;;;;21.10;16.57;;;;;;;;;;5074917;28;20440;-74
2023/01/21 04:49:05;;;;;;;19.93;17.00;;;;;;;;;;5070090;28;20517;-74
2023/01/21 04:51:32;;;;;;;21.00;17.97;;;;;;;;;;5070167;28;20452;-74
2023/01/21 04:53:59;;;;;;;18.67;15.67;;;;;;;;;;5069795;28;20451;-74
2023/01/21 04:56:26;;;;;;;19.77;16.47;;;;;;;;;;5069581;28;20933;-75
2023/01/21 04:58:53;;;;;;;19.97;17.90;;;;;;;;;;5069692;28;20488;-75
2023/01/21 05:01:20;;;;;;;18.73;16.70;;;;;;;;;;5069863;28;20488;-73
2023/01/21 05:03:48;;;;;;;19.70;16.40;;;;;;;;;;5069609;28;20486;-74
2023/01/21 05:06:15;;;;;;;17.97;15.77;;;;;;;;;;5069571;28;20456;-74
2023/01/21 05:08:42;;;;;;;17.60;15.57;;;;;;;;;;5069358;28;20826;-74
2023/01/21 05:11:09;;;;;;;16.03;13.90;;;;;;;;;;5069795;28;20939;-73
2023/01/21 05:13:36;;;;;;;17.37;14.37;;;;;;;;;;5069547;28;20491;-75
2023/01/21 05:16:06;;;;;;;18.10;14.63;;;;;;;;;;5064126;28;20452;-74
2023/01/21 05:18:33;;;;;;;16.10;13.93;;;;;;;;;;5067766;28;20480;-74
2023/01/21 05:21:02;;;;;;;18.27;15.03;;;;;;;;;;5071839;28;20441;-74
2023/01/21 05:23:29;;;;;;;15.77;14.13;;;;;;;;;;5080070;28;20457;-75
2023/01/21 05:25:56;;;;;;;22.30;15.77;;;;;;;;;;5070837;28;20448;-74
2023/01/21 05:28:23;;;;;;;17.20;15.07;;;;;;;;;;5069781;28;20470;-73
2023/01/21 05:30:50;;;;;;;17.57;15.33;;;;;;;;;;5069744;28;20467;-74
2023/01/21 05:33:17;;;;;;;19.50;15.10;;;;;;;;;;5069292;28;20791;-75
2023/01/21 05:35:44;;;;;;;15.90;14.13;;;;;;;;;;5071771;28;20440;-74
2023/01/21 05:38:12;;;;;;;18.40;15.27;;;;;;;;;;5073262;28;20451;-74
2023/01/21 05:40:39;;;;;;;16.30;14.60;;;;;;;;;;5072596;28;20972;-73
2023/01/21 05:43:06;;;;;;;22.63;17.87;;;;;;;;;;5075100;28;20448;-74
2023/01/21 05:45:33;;;;;;;18.90;17.10;;;;;;;;;;5075176;28;20449;-74
2023/01/21 05:48:00;;;;;;;19.23;16.30;;;;;;;;;;5073455;28;20449;-74
2023/01/21 05:50:28;;;;;;;15.60;14.10;;;;;;;;;;5073048;28;20452;-75
2023/01/21 05:52:55;;;;;;;18.10;15.43;;;;;;;;;;5072952;28;20525;-74
2023/01/21 05:55:23;;;;;;;21.93;16.30;;;;;;;;;;5073382;28;20437;-75
2023/01/21 05:57:50;;;;;;;17.00;15.27;;;;;;;;;;5073565;28;20447;-75
2023/01/21 06:00:17;;;;;;;19.10;15.07;;;;;;;;;;5073133;28;20531;-74
2023/01/21 06:02:44;;;;;;;18.20;15.40;;;;;;;;;;5072838;28;20448;-74
2023/01/21 06:05:11;;;;;;;20.17;16.77;;;;;;;;;;5072986;28;20499;-74
2023/01/21 06:07:38;;;;;;;17.73;15.93;;;;;;;;;;5073627;28;20566;-74
2023/01/21 06:10:06;;;;;;;22.33;17.83;;;;;;;;;;5073052;28;20646;-75
2023/01/21 06:12:34;;;;;;;20.30;16.50;;;;;;;;;;5072946;28;20472;-74
2023/01/21 06:15:01;;;;;;;20.93;18.07;;;;;;;;;;5069530;28;20444;-74
2023/01/21 06:17:28;;;;;;;23.27;18.70;;;;;;;;;;5052905;28;20453;-74
2023/01/21 06:19:55;;;;;;;24.37;19.93;;;;;;;;;;5052683;28;21020;-75
2023/01/21 06:22:22;;;;;;;24.80;18.50;;;;;;;;;;5053172;28;20480;-74
2023/01/21 06:24:50;;;;;;;21.63;19.40;;;;;;;;;;5052431;28;20953;-75
2023/01/21 06:27:17;;;;;;;22.13;18.60;;;;;;;;;;5052700;28;20446;-75
2023/01/21 06:29:45;;;;;;;22.90;19.13;;;;;;;;;;5052644;28;20853;-74
2023/01/21 06:32:12;;;;;;;24.70;20.37;;;;;;;;;;5052561;28;20476;-75
2023/01/21 06:34:39;;;;;;;27.37;19.93;;;;;;;;;;5052607;28;20472;-76
2023/01/21 06:37:06;;;;;;;26.00;21.10;;;;;;;;;;5052453;28;20964;-74
2023/01/21 06:39:33;;;;;;;29.10;21.60;;;;;;;;;;5052461;28;20993;-75
2023/01/21 06:42:00;;;;;;;28.07;22.13;;;;;;;;;;5053455;28;20449;-74
2023/01/21 06:44:27;;;;;;;31.37;22.80;;;;;;;;;;5055004;28;20442;-74
2023/01/21 06:46:56;;;;;;;28.67;23.30;;;;;;;;;;5053506;28;20450;-75
2023/01/21 06:49:23;;;;;;;29.50;23.70;;;;;;;;;;5052416;28;20461;-75
2023/01/21 06:51:51;;;;;;;34.10;25.80;;;;;;;;;;5054023;28;20448;-74
2023/01/21 06:54:18;;;;;;;34.80;24.03;;;;;;;;;;5054681;28;20442;-74
2023/01/21 06:56:45;;;;;;;33.33;24.60;;;;;;;;;;5056807;28;20449;-74
2023/01/21 06:59:12;;;;;;;34.53;24.53;;;;;;;;;;5057094;28;20488;-74
2023/01/21 07:01:39;;;;;;;34.67;24.70;;;;;;;;;;5056477;28;20818;-74
2023/01/21 07:04:07;;;;;;;39.60;25.43;;;;;;;;;;5052398;28;20937;-75
2023/01/21 07:06:34;;;;;;;34.60;25.43;;;;;;;;;;5052120;28;20765;-74
2023/01/21 07:09:02;;;;;;;37.03;26.53;;;;;;;;;;5052169;28;20465;-75
2023/01/21 07:11:29;;;;;;;32.80;25.23;;;;;;;;;;5052122;28;20452;-74
2023/01/21 07:13:56;;;;;;;32.43;24.63;;;;;;;;;;5052161;28;20441;-75
2023/01/21 07:16:23;;;;;;;36.63;25.20;;;;;;;;;;5052025;28;20446;-75
2023/01/21 07:18:50;;;;;;;40.30;25.03;;;;;;;;;;5052385;28;20985;-75
2023/01/21 07:21:19;;;;;;;37.23;25.83;;;;;;;;;;5051665;28;20445;-74
2023/01/21 07:23:46;;;;;;;36.53;25.70;;;;;;;;;;5051606;28;20441;-75
2023/01/21 07:26:13;;;;;;;36.23;26.23;;;;;;;;;;5051749;28;20449;-74
2023/01/21 07:28:40;;;;;;;35.53;26.17;;;;;;;;;;5052284;28;20988;-75
2023/01/21 07:31:08;;;;;;;36.37;25.40;;;;;;;;;;5052134;28;20449;-74
2023/01/21 07:33:35;;;;;;;37.87;24.80;;;;;;;;;;5052066;28;20914;-75
2023/01/21 07:36:02;;;;;;;36.67;23.57;;;;;;;;;;5052441;28;20442;-75
2023/01/21 07:38:30;;;;;;;33.97;23.03;;;;;;;;;;5061349;28;20441;-74
2023/01/21 07:40:58;;;;;;;34.00;23.10;;;;;;;;;;5072455;28;20478;-73
2023/01/21 07:43:26;;;;;;;34.93;24.50;;;;;;;;;;5069439;28;20434;-74
2023/01/21 07:45:53;;;;;;;34.43;23.30;;;;;;;;;;5061749;28;20465;-74
2023/01/21 07:48:20;;;;;;;35.70;23.70;;;;;;;;;;5051332;28;20449;-75
2023/01/21 07:50:47;;;;;;;33.80;23.30;;;;;;;;;;5051276;28;20445;-74
2023/01/21 07:53:14;;;;;;;32.63;22.77;;;;;;;;;;5050698;28;20450;-74
2023/01/21 07:55:43;;;;;;;34.83;24.17;;;;;;;;;;5050671;28;20449;-75
2023/01/21 07:58:10;;;;;;;32.37;23.53;;;;;;;;;;5051126;28;20449;-75
2023/01/21 08:00:37;;;;;;;35.43;23.40;;;;;;;;;;5050653;28;21026;-75
2023/01/21 08:03:04;;;;;;;33.70;23.40;;;;;;;;;;5051336;28;20450;-76
2023/01/21 08:05:31;;;;;;;36.90;25.03;;;;;;;;;;5051027;28;20445;-75
2023/01/21 08:07:59;;;;;;;33.50;23.17;;;;;;;;;;5050616;28;20922;-75
2023/01/21 08:10:26;;;;;;;33.90;23.17;;;;;;;;;;5050632;28;20463;-75
2023/01/21 08:12:54;;;;;;;30.87;21.70;;;;;;;;;;5054467;28;20444;-75
2023/01/21 08:15:21;;;;;;;34.00;22.27;;;;;;;;;;5066310;28;20442;-75
2023/01/21 08:17:49;;;;;;;33.63;23.20;;;;;;;;;;5066906;28;20452;-75
2023/01/21 08:20:16;;;;;;;34.77;23.37;;;;;;;;;;5070203;28;20503;-74
2023/01/21 08:22:43;;;;;;;36.67;23.90;;;;;;;;;;5070468;28;20816;-75
2023/01/21 08:25:11;;;;;;;37.87;25.20;;;;;;;;;;5070605;28;20452;-75
2023/01/21 08:27:38;;;;;;;38.10;24.30;;;;;;;;;;5070932;28;20433;-74
2023/01/21 08:30:07;;;;;;;36.40;23.40;;;;;;;;;;5071263;28;20478;-75
2023/01/21 08:32:34;;;;;;;35.63;22.80;;;;;;;;;;5070364;28;20992;-75
2023/01/21 08:35:01;;;;;;;36.57;23.37;;;;;;;;;;5070784;28;20448;-74
2023/01/21 08:37:28;;;;;;;33.33;22.23;;;;;;;;;;5071862;28;20899;-75
2023/01/21 08:39:55;;;;;;;35.67;23.10;;;;;;;;;;5070756;28;20481;-74
2023/01/21 08:42:22;;;;;;;33.20;21.83;;;;;;;;;;5070670;28;20457;-74
2023/01/21 08:44:50;;;;;;;35.40;23.50;;;;;;;;;;5071168;28;20471;-75
2023/01/21 08:47:18;;;;;;;34.17;22.47;;;;;;;;;;5073417;28;20481;-75
2023/01/21 08:49:45;;;;;;;35.33;23.47;;;;;;;;;;5073737;28;21323;-75
2023/01/21 08:52:12;;;;;;;33.40;22.63;;;;;;;;;;5072854;28;20823;-74
2023/01/21 08:54:40;;;;;;;32.10;22.53;;;;;;;;;;5070250;28;20449;-75
2023/01/21 08:57:07;;;;;;;33.33;22.07;;;;;;;;;;5073624;28;20486;-74
2023/01/21 08:59:34;;;;;;;37.70;23.17;;;;;;;;;;5072712;28;20851;-75
2023/01/21 09:02:01;;;;;;;33.50;24.30;;;;;;;;;;5072168;28;20448;-75
2023/01/21 09:04:29;;;;;;;37.40;24.30;;;;;;;;;;5067565;28;20449;-74
2023/01/21 09:06:56;;;;;;;37.20;24.43;;;;;;;;;;5069190;28;20483;-75
2023/01/21 09:09:23;;;;;;;37.23;24.37;;;;;;;;;;5069479;28;20476;-75
2023/01/21 09:11:51;;;;;;;35.90;24.43;;;;;;;;;;5069834;28;20441;-76
2023/01/21 09:14:18;;;;;;;34.27;22.40;;;;;;;;;;5069063;28;20937;-75
2023/01/21 09:16:45;;;;;;;43.03;23.83;;;;;;;;;;5069315;28;20448;-75
2023/01/21 09:19:12;;;;;;;29.20;21.90;;;;;;;;;;5069565;28;20464;-74
2023/01/21 09:21:40;;;;;;;32.63;24.13;;;;;;;;;;5069547;28;20460;-74
2023/01/21 09:24:08;;;;;;;40.77;25.33;;;;;;;;;;5069340;28;20537;-74
2023/01/21 09:26:35;;;;;;;33.50;22.60;;;;;;;;;;5069838;28;20453;-75
2023/01/21 09:29:02;;;;;;;34.73;23.37;;;;;;;;;;5069499;28;20495;-76
2023/01/21 09:31:30;;;;;;;42.90;24.20;;;;;;;;;;5069578;28;20811;-74
2023/01/21 09:33:58;;;;;;;30.57;19.83;;;;;;;;;;5069183;28;20445;-75
2023/01/21 09:36:26;;;;;;;31.90;21.53;;;;;;;;;;5069521;28;20441;-75
2023/01/21 09:38:54;;;;;;;36.47;22.30;;;;;;;;;;5069655;28;20464;-75
2023/01/21 09:41:24;;;;;;;35.80;23.40;;;;;;;;;;5069549;28;20488;-74
2023/01/21 09:43:55;;;;;;;30.60;23.00;;;;;;;;;;5069232;28;20821;-75
2023/01/21 09:46:28;;;;;;;32.63;22.37;;;;;;;;;;5069785;28;20535;-75
2023/01/21 09:48:56;;;;;;;32.30;22.17;;;;;;;;;;5069705;28;20947;-76
2023/01/21 09:51:26;;;;;;;35.43;23.03;;;;;;;;;;5069771;28;20970;-74
2023/01/21 09:53:57;;;;;;;31.63;21.10;;;;;;;;;;5069627;28;20951;-74
2023/01/21 09:56:29;;;;;;;31.03;21.00;;;;;;;;;;5070545;28;20541;-74
2023/01/21 09:59:00;;;;;;;34.10;22.30;;;;;;;;;;5070197;28;20465;-75
2023/01/21 10:01:28;;;;;;;37.00;22.30;;;;;;;;;;5069693;28;20833;-75
2023/01/21 10:03:56;;;;;;;35.83;22.73;;;;;;;;;;5069471;28;20555;-75
2023/01/21 10:06:27;;;;;;;39.73;24.30;;;;;;;;;;5069271;28;20945;-75
2023/01/21 10:09:08;;;;;;;31.77;23.00;;;;;;;;;;5068949;28;20491;-76
2023/01/21 10:11:40;;;;;;;33.40;22.27;;;;;;;;;;5069757;28;20451;-75
2023/01/21 10:14:17;;;;;;;35.70;22.80;;;;;;;;;;5068933;28;20452;-75
2023/01/21 10:16:46;;;;;;;30.03;22.70;;;;;;;;;;5069252;28;20440;-74
2023/01/21 10:19:14;;;;;;;32.70;22.60;;;;;;;;;;5069434;28;20464;-75
2023/01/21 10:21:47;;;;;;;27.47;20.17;;;;;;;;;;5069161;28;20489;-76
2023/01/21 10:24:16;;;;;;;26.57;18.37;;;;;;;;;;5069236;28;20456;-75
2023/01/21 10:26:45;;;;;;;26.57;18.80;;;;;;;;;;5070143;28;20495;-74
2023/01/21 10:29:15;;;;;;;26.70;19.90;;;;;;;;;;5072869;28;20473;-76
2023/01/21 10:31:43;;;;;;;30.70;20.83;;;;;;;;;;5073210;28;20536;-75
2023/01/21 10:34:13;;;;;;;34.33;20.67;;;;;;;;;;5073221;28;20462;-75
2023/01/21 10:36:55;;;;;;;23.43;18.27;;;;;;;;;;5072924;28;20475;-74
2023/01/21 10:39:28;;;;;;;23.77;17.40;;;;;;;;;;5061743;28;20460;-75
2023/01/21 10:42:05;;;;;;;26.57;18.83;;;;;;;;;;5071472;28;20894;-75
2023/01/21 10:44:39;;;;;;;32.50;20.63;;;;;;;;;;5072417;28;20518;-74
2023/01/21 10:47:10;;;;;;;29.10;19.37;;;;;;;;;;5073147;28;20518;-75
2023/01/21 10:49:44;;;;;;;30.17;21.90;;;;;;;;;;5071931;28;20464;-76
2023/01/21 10:52:14;;;;;;;28.40;20.37;;;;;;;;;;5072713;28;20448;-75
2023/01/21 10:54:48;;;;;;;31.00;20.80;;;;;;;;;;5063992;28;20437;-75
2023/01/21 10:57:22;;;;;;;30.40;20.33;;;;;;;;;;5065782;28;20453;-75
2023/01/21 10:59:50;;;;;;;29.53;20.50;;;;;;;;;;5062389;28;20849;-76
2023/01/21 11:02:21;;;;;;;34.37;21.57;;;;;;;;;;5059837;28;20461;-75
2023/01/21 11:04:48;;;;;;;29.60;21.10;;;;;;;;;;5060191;28;20452;-75
2023/01/21 11:07:18;;;;;;;28.97;21.50;;;;;;;;;;5061907;28;20829;-75
2023/01/21 11:09:48;;;;;;;31.43;20.73;;;;;;;;;;5061544;28;20517;-74
2023/01/21 11:12:17;;;;;;;30.83;21.47;;;;;;;;;;5063885;28;20437;-75
2023/01/21 11:14:47;;;;;;;25.57;20.07;;;;;;;;;;5061187;28;20957;-75
2023/01/21 11:17:14;;;;;;;29.73;19.90;;;;;;;;;;5061108;28;20449;-74
2023/01/21 11:19:41;;;;;;;28.10;18.77;;;;;;;;;;5060301;28;20468;-75
2023/01/21 11:22:20;;;;;;;28.80;20.40;;;;;;;;;;5063520;28;20477;-75
2023/01/21 11:24:50;;;;;;;27.60;19.23;;;;;;;;;;5063642;28;20452;-75
2023/01/21 11:27:21;;;;;;;28.23;20.20;;;;;;;;;;5065103;28;20441;-74
2023/01/21 11:29:48;;;;;;;25.53;20.00;;;;;;;;;;5073236;28;20637;-74
2023/01/21 11:32:17;;;;;;;24.47;19.03;;;;;;;;;;5073418;28;20444;-74
2023/01/21 11:34:44;;;;;;;26.80;20.00;;;;;;;;;;5073018;28;20432;-75
2023/01/21 11:37:19;;;;;;;27.03;19.60;;;;;;;;;;5072686;28;20445;-76
2023/01/21 11:39:52;;;;;;;26.10;18.53;;;;;;;;;;5072213;28;21017;-75
2023/01/21 11:42:19;;;;;;;24.30;18.07;;;;;;;;;;5072830;28;20484;-75
2023/01/21 11:44:51;;;;;;;22.10;17.77;;;;;;;;;;5072877;28;20479;-76
2023/01/21 11:47:28;;;;;;;24.40;18.67;;;;;;;;;;5071487;28;20960;-74
2023/01/21 11:49:55;;;;;;;23.70;18.50;;;;;;;;;;5071210;28;20468;-74
2023/01/21 11:52:22;;;;;;;25.80;18.50;;;;;;;;;;5071521;28;20441;-74
2023/01/21 11:54:50;;;;;;;24.63;17.97;;;;;;;;;;5071149;28;20510;-74
2023/01/21 11:57:21;;;;;;;26.60;17.80;;;;;;;;;;5070161;28;20784;-74
2023/01/21 11:59:49;;;;;;;27.50;18.60;;;;;;;;;;5068747;28;20525;-75
2023/01/21 12:02:18;;;;;;;32.50;18.93;;;;;;;;;;5069949;28;20468;-74
2023/01/21 12:04:47;;;;;;;25.30;17.47;;;;;;;;;;5059588;28;20915;-75
2023/01/21 12:07:18;;;;;;;24.50;18.13;;;;;;;;;;5067585;28;20460;-75
2023/01/21 12:09:49;;;;;;;25.00;18.40;;;;;;;;;;5071418;28;20469;-76
2023/01/21 12:12:26;;;;;;;20.30;15.93;;;;;;;;;;5071238;28;20447;-76
2023/01/21 12:14:58;;;;;;;29.60;19.30;;;;;;;;;;5067701;28;20959;-77
2023/01/21 12:17:38;;;;;;;25.73;18.57;;;;;;;;;;5050834;28;20465;-76
2023/01/21 12:20:15;;;;;;;20.87;16.20;;;;;;;;;;5050015;28;20985;-76
2023/01/21 12:22:53;;;;;;;26.23;16.80;;;;;;;;;;5049766;28;20945;-76
2023/01/21 12:25:25;;;;;;;26.30;15.60;;;;;;;;;;5050013;28;20545;-76
2023/01/21 12:28:02;;;;;;;24.40;15.90;;;;;;;;;;5049848;28;20433;-76
2023/01/21 12:30:33;;;;;;;21.80;15.50;;;;;;;;;;5049588;28;20866;-76
2023/01/21 12:33:02;;;;;;;22.87;16.23;;;;;;;;;;5049537;28;20987;-75
2023/01/21 12:35:30;;;;;;;23.83;15.63;;;;;;;;;;5050026;28;20452;-76
2023/01/21 12:37:59;;;;;;;31.37;16.63;;;;;;;;;;5049862;28;20442;-76
2023/01/21 12:40:29;;;;;;;24.57;16.80;;;;;;;;;;5050699;28;20989;-76
2023/01/21 12:43:01;;;;;;;24.00;15.60;;;;;;;;;;5053389;28;20452;-75
2023/01/21 12:45:29;;;;;;;25.37;17.20;;;;;;;;;;5068758;28;21057;-76
2023/01/21 12:47:58;;;;;;;25.23;17.70;;;;;;;;;;5070189;28;20448;-76
2023/01/21 12:50:30;;;;;;;24.80;16.57;;;;;;;;;;5071014;28;20468;-76
2023/01/21 12:53:06;;;;;;;27.53;16.87;;;;;;;;;;5070171;28;20440;-75
2023/01/21 12:55:43;;;;;;;24.80;16.43;;;;;;;;;;5070561;28;20869;-75
2023/01/21 12:58:13;;;;;;;27.20;17.73;;;;;;;;;;5070111;28;20451;-75
2023/01/21 13:00:43;;;;;;;20.00;14.37;;;;;;;;;;5070598;28;20968;-75
2023/01/21 13:03:13;;;;;;;21.07;16.53;;;;;;;;;;5069721;28;20448;-75
2023/01/21 13:05:44;;;;;;;24.63;16.23;;;;;;;;;;5069921;28;20811;-77
2023/01/21 13:08:30;;;;;;;25.63;17.20;;;;;;;;;;5070143;28;20520;-76
2023/01/21 13:11:03;;;;;;;21.33;15.57;;;;;;;;;;5070971;28;20444;-76
2023/01/21 13:13:34;;;;;;;19.77;14.80;;;;;;;;;;5069819;28;20598;-76
2023/01/21 13:16:02;;;;;;;25.63;17.00;;;;;;;;;;5057947;28;20499;-76
2023/01/21 13:18:32;;;;;;;22.43;16.30;;;;;;;;;;5051420;28;20969;-76
2023/01/21 13:21:04;;;;;;;24.30;16.50;;;;;;;;;;5069003;28;20560;-76
2023/01/21 13:23:35;;;;;;;23.67;16.10;;;;;;;;;;5068726;28;20417;-77
2023/01/21 13:26:06;;;;;;;21.20;15.83;;;;;;;;;;5069883;28;20808;-75
2023/01/21 13:28:38;;;;;;;23.77;18.07;;;;;;;;;;5069624;28;20453;-75
2023/01/21 13:31:10;;;;;;;24.13;18.20;;;;;;;;;;5071432;28;20440;-76
2023/01/21 13:33:42;;;;;;;24.67;17.87;;;;;;;;;;5070580;28;20448;-75
2023/01/21 13:36:16;;;;;;;26.47;18.27;;;;;;;;;;5070667;28;20517;-76
2023/01/21 13:38:47;;;;;;;22.30;16.23;;;;;;;;;;5068918;28;20465;-76
2023/01/21 13:41:24;;;;;;;25.40;18.93;;;;;;;;;;5069045;28;20470;-76
2023/01/21 13:44:00;;;;;;;25.33;17.60;;;;;;;;;;5068800;28;20459;-76
2023/01/21 13:46:39;;;;;;;23.53;17.50;;;;;;;;;;5069070;28;20451;-77
2023/01/21 13:49:16;;;;;;;25.00;16.90;;;;;;;;;;5069032;28;20464;-76
2023/01/21 13:51:50;;;;;;;25.97;17.00;;;;;;;;;;5068934;28;20436;-76
2023/01/21 13:54:28;;;;;;;26.23;17.73;;;;;;;;;;5068661;28;20445;-75
2023/01/21 13:57:01;;;;;;;21.73;14.90;;;;;;;;;;5068787;28;20434;-74
2023/01/21 13:59:32;;;;;;;25.00;17.17;;;;;;;;;;5068439;28;20988;-75
2023/01/21 14:02:02;;;;;;;25.67;15.50;;;;;;;;;;5072562;28;20563;-74
2023/01/21 14:04:33;;;;;;;21.97;16.10;;;;;;;;;;5074557;28;21087;-75
2023/01/21 14:07:01;;;;;;;24.83;17.50;;;;;;;;;;5072361;28;20452;-74
2023/01/21 14:09:30;;;;;;;27.27;18.00;;;;;;;;;;5072791;28;20506;-76
2023/01/21 14:11:59;;;;;;;21.00;15.70;;;;;;;;;;5072709;28;20457;-75
2023/01/21 14:14:45;;;;;;;22.47;15.40;;;;;;;;;;5072333;28;20445;-75
2023/01/21 14:17:24;;;;;;;26.70;16.80;;;;;;;;;;5054220;28;20425;-73
2023/01/21 14:20:03;;;;;;;19.63;15.20;;;;;;;;;;5053763;28;20469;-75
2023/01/21 14:22:38;;;;;;;22.10;16.07;;;;;;;;;;5055060;28;20916;-74
2023/01/21 14:25:14;;;;;;;21.67;15.07;;;;;;;;;;5054377;28;20453;-73
2023/01/21 14:27:47;;;;;;;21.90;16.00;;;;;;;;;;5053331;28;20449;-74
2023/01/21 14:30:19;;;;;;;22.50;15.40;;;;;;;;;;5052670;28;20465;-75